Hope, Canada
Current Conditions -  °F | °C
As of 2:08 PM on Saturday 25 Oct 2014 (Local Time) from CYHE Reporting Station
Broken Clouds Broken Clouds  
Wind Chill: 12°   Ceiling: 12000
Heat Index: 12°   Visibility: 9mi
Dew Point:   Wind: 12mph
Humidity: 77%   Direction: 100°E
Pressure: 29.42"   Gusts: NA
Location:  49.36°N, 121.5°W
Report Text: CYHE 252108Z AUTO 10010KT 9SM SCT100 BKN120 12/08 A2942 RMK SLP962 DENSITY ALT 300FT
Loading
Personal Weather Stations






























Interactive Weather Map
Tropical Storm Tracking
New forecast layout! Learn more

10-Day Weather Forecast

Advertisements
Track Severe Weather on mobile